PWSweather.com
Personal Weather Stations
Station Observations

Acton, CA 93510

Lat: 34.47703, Lon: -118.17483

Elevation: 2900

Station Type: Davis Vantage Pro 2

http://www.actonastro.com/weather/current.php

Latest ConditionsUpdated 10:59:08 PM PDT Wednesday, Jul 23, 2014
Currently Today's Max Today's Min Today's Average
Temperature 72.5°F22.5°C 97.5°F36.4°C 61.3°F16.3°C 80.0°F26.7°C
Dew Point 35.7°F2.1°C 43.9°F6.6°C 9.6°F-12.4°C 34.7°F1.5°C
Winds Calm Calm 16.0 mph NW25.7 kmh NW - 3.6 mph 5.8 kmh
Wind Gusts 4.0 mph6.4 kmh 22.0 mph35.4 kmh - -
Humidity 26% 47% 4% 23%
Pressure 29.74 in1007.1 mb 29.85 in1010.8 mb 29.71 in1006.1 mb -
Hour Temp Dew Point Humidity Winds Wind Gusts Pressure Precip Precip Rate Daily Precip Total
10:59 PM 72.5°F22.5°C 35.7°F2.1°C 26% Calm Calm 4.0 mph6.4 kmh 29.74 in1007.1 mb 0.00 in0.0 mm 0.00 in/hr0.0 mm/hr 0.00 in0.0 mm
10:54 PM 72.8°F22.7°C 35.9°F2.2°C 26% 1.0 mph N1.6 kmh N 4.0 mph6.4 kmh 29.74 in1007.1 mb 0.00 in0.0 mm 0.00 in/hr0.0 mm/hr 0.00 in0.0 mm
10:49 PM 73.2°F22.9°C 36.2°F2.3°C 26% 3.0 mph N4.8 kmh N 4.0 mph6.4 kmh 29.74 in1007.1 mb 0.00 in0.0 mm 0.00 in/hr0.0 mm/hr 0.00 in0.0 mm
10:44 PM 73.3°F22.9°C 36.3°F2.4°C 26% 3.0 mph NW4.8 kmh NW 3.0 mph4.8 kmh 29.74 in1007.1 mb 0.00 in0.0 mm 0.00 in/hr0.0 mm/hr 0.00 in0.0 mm
10:39 PM 73.7°F23.2°C 36.7°F2.6°C 26% 2.0 mph NW3.2 kmh NW 3.0 mph4.8 kmh 29.74 in1007.1 mb 0.00 in0.0 mm 0.00 in/hr0.0 mm/hr 0.00 in0.0 mm
10:34 PM 74.0°F23.3°C 36.9°F2.7°C 26% 2.0 mph NW3.2 kmh NW 3.0 mph4.8 kmh 29.74 in1007.1 mb 0.00 in0.0 mm 0.00 in/hr0.0 mm/hr 0.00 in0.0 mm
10:29 PM 74.2°F23.4°C 36.1°F2.3°C 25% 1.0 mph NW1.6 kmh NW 3.0 mph4.8 kmh 29.73 in1006.8 mb 0.00 in0.0 mm 0.00 in/hr0.0 mm/hr 0.00 in0.0 mm
10:24 PM 74.4°F23.6°C 36.3°F2.4°C 25% 1.0 mph NW1.6 kmh NW 3.0 mph4.8 kmh 29.73 in1006.8 mb 0.00 in0.0 mm 0.00 in/hr0.0 mm/hr 0.00 in0.0 mm
10:19 PM 74.4°F23.6°C 37.3°F2.9°C 26% 2.0 mph NW3.2 kmh NW 3.0 mph4.8 kmh 29.73 in1006.8 mb 0.00 in0.0 mm 0.00 in/hr0.0 mm/hr 0.00 in0.0 mm
10:14 PM 74.6°F23.7°C 36.4°F2.4°C 25% 1.0 mph NW1.6 kmh NW 3.0 mph4.8 kmh 29.74 in1007.1 mb 0.00 in0.0 mm 0.00 in/hr0.0 mm/hr 0.00 in0.0 mm
10:09 PM 74.7°F23.7°C 36.5°F2.5°C 25% 2.0 mph NW3.2 kmh NW 3.0 mph4.8 kmh 29.74 in1007.1 mb 0.00 in0.0 mm 0.00 in/hr0.0 mm/hr 0.00 in0.0 mm
10:04 PM 75.1°F23.9°C 36.9°F2.7°C 25% 2.0 mph WNW3.2 kmh WNW 2.0 mph3.2 kmh 29.74 in1007.1 mb 0.00 in0.0 mm 0.00 in/hr0.0 mm/hr 0.00 in0.0 mm
09:59 PM 75.1°F23.9°C 36.9°F2.7°C 25% Calm Calm 2.0 mph3.2 kmh 29.73 in1006.8 mb 0.00 in0.0 mm 0.00 in/hr0.0 mm/hr 0.00 in0.0 mm
09:54 PM 75.3°F24.1°C 37.0°F2.8°C 25% 1.0 mph WNW1.6 kmh WNW 2.0 mph3.2 kmh 29.73 in1006.8 mb 0.00 in0.0 mm 0.00 in/hr0.0 mm/hr 0.00 in0.0 mm
09:49 PM 75.6°F24.2°C 36.3°F2.4°C 24% 1.0 mph WNW1.6 kmh WNW 2.0 mph3.2 kmh 29.73 in1006.8 mb 0.00 in0.0 mm 0.00 in/hr0.0 mm/hr 0.00 in0.0 mm
09:44 PM 76.3°F24.6°C 36.8°F2.7°C 24% Calm Calm 2.0 mph3.2 kmh 29.73 in1006.8 mb 0.00 in0.0 mm 0.00 in/hr0.0 mm/hr 0.00 in0.0 mm
09:39 PM 76.8°F24.9°C 36.2°F2.3°C 23% 1.0 mph WNW1.6 kmh WNW 2.0 mph3.2 kmh 29.73 in1006.8 mb 0.00 in0.0 mm 0.00 in/hr0.0 mm/hr 0.00 in0.0 mm
09:34 PM 77.4°F25.2°C 36.7°F2.6°C 23% 2.0 mph WNW3.2 kmh WNW 2.0 mph3.2 kmh 29.73 in1006.8 mb 0.00 in0.0 mm 0.00 in/hr0.0 mm/hr 0.00 in0.0 mm
09:29 PM 77.9°F25.5°C 36.0°F2.2°C 22% Calm Calm -- 29.73 in1006.8 mb 0.00 in0.0 mm 0.00 in/hr0.0 mm/hr 0.00 in0.0 mm
09:24 PM 78.3°F25.7°C 36.3°F2.4°C 22% 1.0 mph WNW1.6 kmh WNW 4.0 mph6.4 kmh 29.73 in1006.8 mb 0.00 in0.0 mm 0.00 in/hr0.0 mm/hr 0.00 in0.0 mm
09:19 PM 78.6°F25.9°C 36.6°F2.6°C 22% 2.0 mph WNW3.2 kmh WNW 4.0 mph6.4 kmh 29.73 in1006.8 mb 0.00 in0.0 mm 0.00 in/hr0.0 mm/hr 0.00 in0.0 mm
09:14 PM 78.8°F26.0°C 36.7°F2.6°C 22% 2.0 mph NW3.2 kmh NW 4.0 mph6.4 kmh 29.73 in1006.8 mb 0.00 in0.0 mm 0.00 in/hr0.0 mm/hr 0.00 in0.0 mm
09:09 PM 79.2°F26.2°C 37.1°F2.8°C 22% 2.0 mph NW3.2 kmh NW 4.0 mph6.4 kmh 29.73 in1006.8 mb 0.00 in0.0 mm 0.00 in/hr0.0 mm/hr 0.00 in0.0 mm
09:04 PM 79.6°F26.4°C 37.4°F3.0°C 22% 2.0 mph W3.2 kmh W 3.0 mph4.8 kmh 29.73 in1006.8 mb 0.00 in0.0 mm 0.00 in/hr0.0 mm/hr 0.00 in0.0 mm
08:59 PM 79.9°F26.6°C 37.6°F3.1°C 22% 1.0 mph W1.6 kmh W 5.0 mph8.0 kmh 29.72 in1006.4 mb 0.00 in0.0 mm 0.00 in/hr0.0 mm/hr 0.00 in0.0 mm
08:54 PM 80.3°F26.8°C 36.8°F2.7°C 21% 1.0 mph W1.6 kmh W 5.0 mph8.0 kmh 29.72 in1006.4 mb 0.00 in0.0 mm 0.00 in/hr0.0 mm/hr 0.00 in0.0 mm
08:49 PM 80.5°F26.9°C 37.0°F2.8°C 21% 4.0 mph W6.4 kmh W 5.0 mph8.0 kmh 29.72 in1006.4 mb 0.00 in0.0 mm 0.00 in/hr0.0 mm/hr 0.00 in0.0 mm
08:44 PM 80.9°F27.2°C 37.3°F2.9°C 21% 1.0 mph NW1.6 kmh NW 5.0 mph8.0 kmh 29.72 in1006.4 mb 0.00 in0.0 mm 0.00 in/hr0.0 mm/hr 0.00 in0.0 mm
08:39 PM 81.1°F27.3°C 37.4°F3.0°C 21% 2.0 mph W3.2 kmh W 5.0 mph8.0 kmh 29.72 in1006.4 mb 0.00 in0.0 mm 0.00 in/hr0.0 mm/hr 0.00 in0.0 mm
08:34 PM 81.6°F27.6°C 36.6°F2.6°C 20% 4.0 mph NW6.4 kmh NW 5.0 mph8.0 kmh 29.72 in1006.4 mb 0.00 in0.0 mm 0.00 in/hr0.0 mm/hr 0.00 in0.0 mm
08:29 PM 82.2°F27.9°C 35.8°F2.1°C 19% Calm Calm -- 29.71 in1006.1 mb 0.00 in0.0 mm 0.00 in/hr0.0 mm/hr 0.00 in0.0 mm
08:24 PM 82.8°F28.2°C 36.3°F2.4°C 19% 2.0 mph SW3.2 kmh SW 2.0 mph3.2 kmh 29.71 in1006.1 mb 0.00 in0.0 mm 0.00 in/hr0.0 mm/hr 0.00 in0.0 mm
08:19 PM 83.2°F28.4°C 35.3°F1.8°C 18% Calm Calm 11.0 mph17.7 kmh 29.71 in1006.1 mb 0.00 in0.0 mm 0.00 in/hr0.0 mm/hr 0.00 in0.0 mm
08:14 PM 83.6°F28.7°C 34.2°F1.2°C 17% 3.0 mph SSW4.8 kmh SSW 11.0 mph17.7 kmh 29.74 in1007.1 mb 0.00 in0.0 mm 0.00 in/hr0.0 mm/hr 0.00 in0.0 mm
08:09 PM 84.0°F28.9°C 34.5°F1.4°C 17% 4.0 mph W6.4 kmh W 12.0 mph19.3 kmh 29.74 in1007.1 mb 0.00 in0.0 mm 0.00 in/hr0.0 mm/hr 0.00 in0.0 mm
08:04 PM 84.3°F29.1°C 33.2°F0.7°C 16% 2.0 mph WNW3.2 kmh WNW 12.0 mph19.3 kmh 29.74 in1007.1 mb 0.00 in0.0 mm 0.00 in/hr0.0 mm/hr 0.00 in0.0 mm
07:59 PM 84.9°F29.4°C 32.1°F0.1°C 15% 7.0 mph W11.3 kmh W 12.0 mph19.3 kmh 29.73 in1006.8 mb 0.00 in0.0 mm 0.00 in/hr0.0 mm/hr 0.00 in0.0 mm
07:54 PM 85.3°F29.6°C 32.4°F0.2°C 15% 9.0 mph WNW14.5 kmh WNW 12.0 mph19.3 kmh 29.73 in1006.8 mb 0.00 in0.0 mm 0.00 in/hr0.0 mm/hr 0.00 in0.0 mm
07:49 PM 85.7°F29.8°C 32.7°F0.4°C 15% 11.0 mph NW17.7 kmh NW 14.0 mph22.5 kmh 29.73 in1006.8 mb 0.00 in0.0 mm 0.00 in/hr0.0 mm/hr 0.00 in0.0 mm
07:44 PM 86.3°F30.2°C 33.2°F0.7°C 15% 3.0 mph W4.8 kmh W 14.0 mph22.5 kmh 29.73 in1006.8 mb 0.00 in0.0 mm 0.00 in/hr0.0 mm/hr 0.00 in0.0 mm
07:39 PM 87.0°F30.6°C 33.7°F0.9°C 15% 3.0 mph WNW4.8 kmh WNW 14.0 mph22.5 kmh 29.73 in1006.8 mb 0.00 in0.0 mm 0.00 in/hr0.0 mm/hr 0.00 in0.0 mm
07:34 PM 87.6°F30.9°C 34.2°F1.2°C 15% 11.0 mph NW17.7 kmh NW 14.0 mph22.5 kmh 29.73 in1006.8 mb 0.00 in0.0 mm 0.00 in/hr0.0 mm/hr 0.00 in0.0 mm
07:29 PM 88.2°F31.2°C 33.0°F0.6°C 14% 6.0 mph W9.7 kmh W 14.0 mph22.5 kmh 29.72 in1006.4 mb 0.00 in0.0 mm 0.00 in/hr0.0 mm/hr 0.00 in0.0 mm
07:24 PM 88.6°F31.4°C 33.3°F0.7°C 14% 5.0 mph NW8.0 kmh NW 14.0 mph22.5 kmh 29.72 in1006.4 mb 0.00 in0.0 mm 0.00 in/hr0.0 mm/hr 0.00 in0.0 mm
07:19 PM 88.8°F31.6°C 33.4°F0.8°C 14% 9.0 mph WNW14.5 kmh WNW 14.0 mph22.5 kmh 29.72 in1006.4 mb 0.00 in0.0 mm 0.00 in/hr0.0 mm/hr 0.00 in0.0 mm
07:14 PM 89.0°F31.7°C 33.6°F0.9°C 14% 5.0 mph WNW8.0 kmh WNW 14.0 mph22.5 kmh 29.73 in1006.8 mb 0.00 in0.0 mm 0.00 in/hr0.0 mm/hr 0.00 in0.0 mm
07:09 PM 89.3°F31.8°C 33.8°F1.0°C 14% 7.0 mph NW11.3 kmh NW 16.0 mph25.7 kmh 29.73 in1006.8 mb 0.00 in0.0 mm 0.00 in/hr0.0 mm/hr 0.00 in0.0 mm
07:04 PM 89.5°F31.9°C 32.1°F0.1°C 13% 7.0 mph NW11.3 kmh NW 16.0 mph25.7 kmh 29.73 in1006.8 mb 0.00 in0.0 mm 0.00 in/hr0.0 mm/hr 0.00 in0.0 mm
06:59 PM 89.7°F32.1°C 32.3°F0.2°C 13% 13.0 mph W20.9 kmh W 16.0 mph25.7 kmh 29.73 in1006.8 mb 0.00 in0.0 mm 0.00 in/hr0.0 mm/hr 0.00 in0.0 mm
06:54 PM 89.9°F32.2°C 32.5°F0.3°C 13% 4.0 mph WNW6.4 kmh WNW 16.0 mph25.7 kmh 29.73 in1006.8 mb 0.00 in0.0 mm 0.00 in/hr0.0 mm/hr 0.00 in0.0 mm
06:49 PM 90.5°F32.5°C 32.9°F0.5°C 13% 7.0 mph WSW11.3 kmh WSW 17.0 mph27.4 kmh 29.73 in1006.8 mb 0.00 in0.0 mm 0.00 in/hr0.0 mm/hr 0.00 in0.0 mm
06:44 PM 90.7°F32.6°C 33.1°F0.6°C 13% 14.0 mph NW22.5 kmh NW 17.0 mph27.4 kmh 29.73 in1006.8 mb 0.00 in0.0 mm 0.00 in/hr0.0 mm/hr 0.00 in0.0 mm
06:39 PM 91.2°F32.9°C 33.5°F0.8°C 13% 11.0 mph W17.7 kmh W 18.0 mph29.0 kmh 29.73 in1006.8 mb 0.00 in0.0 mm 0.00 in/hr0.0 mm/hr 0.00 in0.0 mm
06:34 PM 91.4°F33.0°C 33.6°F0.9°C 13% 6.0 mph W9.7 kmh W 18.0 mph29.0 kmh 29.73 in1006.8 mb 0.00 in0.0 mm 0.00 in/hr0.0 mm/hr 0.00 in0.0 mm
06:29 PM 91.6°F33.1°C 33.8°F1.0°C 13% 10.0 mph WNW16.1 kmh WNW 18.0 mph29.0 kmh 29.73 in1006.8 mb 0.00 in0.0 mm 0.00 in/hr0.0 mm/hr 0.00 in0.0 mm
06:24 PM 92.3°F33.5°C 34.3°F1.3°C 13% 10.0 mph WNW16.1 kmh WNW 18.0 mph29.0 kmh 29.72 in1006.4 mb 0.00 in0.0 mm 0.00 in/hr0.0 mm/hr 0.00 in0.0 mm
06:19 PM 92.5°F33.6°C 34.5°F1.4°C 13% 9.0 mph WNW14.5 kmh WNW 16.0 mph25.7 kmh 29.72 in1006.4 mb 0.00 in0.0 mm 0.00 in/hr0.0 mm/hr 0.00 in0.0 mm
06:14 PM 92.9°F33.8°C 34.8°F1.6°C 13% 7.0 mph W11.3 kmh W 16.0 mph25.7 kmh 29.72 in1006.4 mb 0.00 in0.0 mm 0.00 in/hr0.0 mm/hr 0.00 in0.0 mm
06:09 PM 93.2°F34.0°C 35.0°F1.7°C 13% 8.0 mph NW12.9 kmh NW 16.0 mph25.7 kmh 29.72 in1006.4 mb 0.00 in0.0 mm 0.00 in/hr0.0 mm/hr 0.00 in0.0 mm
06:04 PM 93.4°F34.1°C 35.2°F1.8°C 13% 4.0 mph W6.4 kmh W 16.0 mph25.7 kmh 29.72 in1006.4 mb 0.00 in0.0 mm 0.00 in/hr0.0 mm/hr 0.00 in0.0 mm
05:59 PM 93.6°F34.2°C 35.3°F1.8°C 13% 11.0 mph NW17.7 kmh NW 16.0 mph25.7 kmh 29.72 in1006.4 mb 0.00 in0.0 mm 0.00 in/hr0.0 mm/hr 0.00 in0.0 mm
05:54 PM 93.8°F34.3°C 35.5°F1.9°C 13% 3.0 mph WSW4.8 kmh WSW 16.0 mph25.7 kmh 29.72 in1006.4 mb 0.00 in0.0 mm 0.00 in/hr0.0 mm/hr 0.00 in0.0 mm
05:49 PM 94.3°F34.6°C 35.9°F2.2°C 13% 9.0 mph W14.5 kmh W 16.0 mph25.7 kmh 29.72 in1006.4 mb 0.00 in0.0 mm 0.00 in/hr0.0 mm/hr 0.00 in0.0 mm
05:44 PM 94.7°F34.8°C 36.2°F2.3°C 13% 8.0 mph W12.9 kmh W 16.0 mph25.7 kmh 29.73 in1006.8 mb 0.00 in0.0 mm 0.00 in/hr0.0 mm/hr 0.00 in0.0 mm
05:39 PM 94.9°F34.9°C 34.3°F1.3°C 12% 3.0 mph NW4.8 kmh NW 16.0 mph25.7 kmh 29.73 in1006.8 mb 0.00 in0.0 mm 0.00 in/hr0.0 mm/hr 0.00 in0.0 mm
05:34 PM 95.1°F35.1°C 36.5°F2.5°C 13% 10.0 mph WNW16.1 kmh WNW 16.0 mph25.7 kmh 29.73 in1006.8 mb 0.00 in0.0 mm 0.00 in/hr0.0 mm/hr 0.00 in0.0 mm
05:29 PM 95.4°F35.2°C 34.7°F1.5°C 12% 10.0 mph W16.1 kmh W 16.0 mph25.7 kmh 29.72 in1006.4 mb 0.00 in0.0 mm 0.00 in/hr0.0 mm/hr 0.00 in0.0 mm
05:24 PM 96.1°F35.6°C 35.2°F1.8°C 12% 16.0 mph NW25.7 kmh NW 16.0 mph25.7 kmh 29.72 in1006.4 mb 0.00 in0.0 mm 0.00 in/hr0.0 mm/hr 0.00 in0.0 mm
05:19 PM 96.3°F35.7°C 33.2°F0.7°C 11% 5.0 mph WSW8.0 kmh WSW 14.0 mph22.5 kmh 29.72 in1006.4 mb 0.00 in0.0 mm 0.00 in/hr0.0 mm/hr 0.00 in0.0 mm
05:14 PM 96.3°F35.7°C 35.4°F1.9°C 12% 5.0 mph NW8.0 kmh NW 13.0 mph20.9 kmh 29.72 in1006.4 mb 0.00 in0.0 mm 0.00 in/hr0.0 mm/hr 0.00 in0.0 mm
05:09 PM 96.3°F35.7°C 35.4°F1.9°C 12% 5.0 mph WNW8.0 kmh WNW 13.0 mph20.9 kmh 29.72 in1006.4 mb 0.00 in0.0 mm 0.00 in/hr0.0 mm/hr 0.00 in0.0 mm
05:04 PM 96.1°F35.6°C 33.1°F0.6°C 11% 4.0 mph SW6.4 kmh SW 16.0 mph25.7 kmh 29.72 in1006.4 mb 0.00 in0.0 mm 0.00 in/hr0.0 mm/hr 0.00 in0.0 mm
04:59 PM 96.1°F35.6°C 30.7°F-0.7°C 10% 4.0 mph SSW6.4 kmh SSW 16.0 mph25.7 kmh 29.72 in1006.4 mb 0.00 in0.0 mm 0.00 in/hr0.0 mm/hr 0.00 in0.0 mm
04:54 PM 96.1°F35.6°C 30.7°F-0.7°C 10% 6.0 mph WSW9.7 kmh WSW 17.0 mph27.4 kmh 29.72 in1006.4 mb 0.00 in0.0 mm 0.00 in/hr0.0 mm/hr 0.00 in0.0 mm
04:49 PM 96.1°F35.6°C 30.7°F-0.7°C 10% 2.0 mph WSW3.2 kmh WSW 17.0 mph27.4 kmh 29.72 in1006.4 mb 0.00 in0.0 mm 0.00 in/hr0.0 mm/hr 0.00 in0.0 mm
04:44 PM 95.9°F35.5°C 32.9°F0.5°C 11% 9.0 mph W14.5 kmh W 17.0 mph27.4 kmh 29.73 in1006.8 mb 0.00 in0.0 mm 0.00 in/hr0.0 mm/hr 0.00 in0.0 mm
04:39 PM 95.9°F35.5°C 30.6°F-0.8°C 10% 10.0 mph SW16.1 kmh SW 17.0 mph27.4 kmh 29.73 in1006.8 mb 0.00 in0.0 mm 0.00 in/hr0.0 mm/hr 0.00 in0.0 mm
04:34 PM 96.1°F35.6°C 33.1°F0.6°C 11% 5.0 mph SW8.0 kmh SW 17.0 mph27.4 kmh 29.73 in1006.8 mb 0.00 in0.0 mm 0.00 in/hr0.0 mm/hr 0.00 in0.0 mm
04:29 PM 96.3°F35.7°C 33.2°F0.7°C 11% 7.0 mph W11.3 kmh W 17.0 mph27.4 kmh 29.72 in1006.4 mb 0.00 in0.0 mm 0.00 in/hr0.0 mm/hr 0.00 in0.0 mm
04:24 PM 96.8°F36.0°C 31.2°F-0.4°C 10% 12.0 mph W19.3 kmh W 18.0 mph29.0 kmh 29.72 in1006.4 mb 0.00 in0.0 mm 0.00 in/hr0.0 mm/hr 0.00 in0.0 mm
04:19 PM 97.1°F36.2°C 31.5°F-0.3°C 10% 8.0 mph WSW12.9 kmh WSW 18.0 mph29.0 kmh 29.72 in1006.4 mb 0.00 in0.0 mm 0.00 in/hr0.0 mm/hr 0.00 in0.0 mm
04:14 PM 97.1°F36.2°C 31.5°F-0.3°C 10% 3.0 mph NW4.8 kmh NW 18.0 mph29.0 kmh 29.73 in1006.8 mb 0.00 in0.0 mm 0.00 in/hr0.0 mm/hr 0.00 in0.0 mm
04:09 PM 97.1°F36.2°C 31.5°F-0.3°C 10% 6.0 mph SW9.7 kmh SW 18.0 mph29.0 kmh 29.73 in1006.8 mb 0.00 in0.0 mm 0.00 in/hr0.0 mm/hr 0.00 in0.0 mm
04:04 PM 97.1°F36.2°C 31.5°F-0.3°C 10% 10.0 mph SSW16.1 kmh SSW 15.0 mph24.1 kmh 29.73 in1006.8 mb 0.00 in0.0 mm 0.00 in/hr0.0 mm/hr 0.00 in0.0 mm
03:59 PM 97.1°F36.2°C 31.5°F-0.3°C 10% 7.0 mph WSW11.3 kmh WSW 19.0 mph30.6 kmh 29.74 in1007.1 mb 0.00 in0.0 mm 0.00 in/hr0.0 mm/hr 0.00 in0.0 mm
03:54 PM 97.3°F36.3°C 29.0°F-1.7°C 9% 5.0 mph W8.0 kmh W 19.0 mph30.6 kmh 29.74 in1007.1 mb 0.00 in0.0 mm 0.00 in/hr0.0 mm/hr 0.00 in0.0 mm
03:49 PM 97.1°F36.2°C 28.9°F-1.7°C 9% 3.0 mph WSW4.8 kmh WSW 19.0 mph30.6 kmh 29.74 in1007.1 mb 0.00 in0.0 mm 0.00 in/hr0.0 mm/hr 0.00 in0.0 mm
03:44 PM 97.3°F36.3°C 29.0°F-1.7°C 9% 7.0 mph WSW11.3 kmh WSW 19.0 mph30.6 kmh 29.74 in1007.1 mb 0.00 in0.0 mm 0.00 in/hr0.0 mm/hr 0.00 in0.0 mm
03:39 PM 97.1°F36.2°C 31.5°F-0.3°C 10% 4.0 mph WSW6.4 kmh WSW 19.0 mph30.6 kmh 29.74 in1007.1 mb 0.00 in0.0 mm 0.00 in/hr0.0 mm/hr 0.00 in0.0 mm
03:34 PM 96.8°F36.0°C 28.6°F-1.9°C 9% 9.0 mph SSW14.5 kmh SSW 19.0 mph30.6 kmh 29.74 in1007.1 mb 0.00 in0.0 mm 0.00 in/hr0.0 mm/hr 0.00 in0.0 mm
03:29 PM 97.1°F36.2°C 31.5°F-0.3°C 10% 3.0 mph W4.8 kmh W 15.0 mph24.1 kmh 29.74 in1007.1 mb 0.00 in0.0 mm 0.00 in/hr0.0 mm/hr 0.00 in0.0 mm
03:24 PM 96.8°F36.0°C 28.6°F-1.9°C 9% 3.0 mph SW4.8 kmh SW 15.0 mph24.1 kmh 29.74 in1007.1 mb 0.00 in0.0 mm 0.00 in/hr0.0 mm/hr 0.00 in0.0 mm
03:19 PM 97.5°F36.4°C 34.1°F1.2°C 11% 5.0 mph SW8.0 kmh SW 16.0 mph25.7 kmh 29.74 in1007.1 mb 0.00 in0.0 mm 0.00 in/hr0.0 mm/hr 0.00 in0.0 mm
03:14 PM 97.5°F36.4°C 29.2°F-1.6°C 9% 5.0 mph WSW8.0 kmh WSW 16.0 mph25.7 kmh 29.74 in1007.1 mb 0.00 in0.0 mm 0.00 in/hr0.0 mm/hr 0.00 in0.0 mm
03:09 PM 97.5°F36.4°C 34.1°F1.2°C 11% 15.0 mph WSW24.1 kmh WSW 17.0 mph27.4 kmh 29.75 in1007.5 mb 0.00 in0.0 mm 0.00 in/hr0.0 mm/hr 0.00 in0.0 mm
03:04 PM 97.1°F36.2°C 33.8°F1.0°C 11% 3.0 mph SSW4.8 kmh SSW 17.0 mph27.4 kmh 29.75 in1007.5 mb 0.00 in0.0 mm 0.00 in/hr0.0 mm/hr 0.00 in0.0 mm
02:59 PM 96.3°F35.7°C 33.2°F0.7°C 11% 4.0 mph W6.4 kmh W 17.0 mph27.4 kmh 29.75 in1007.5 mb 0.00 in0.0 mm 0.00 in/hr0.0 mm/hr 0.00 in0.0 mm
02:54 PM 96.8°F36.0°C 33.6°F0.9°C 11% 7.0 mph SSW11.3 kmh SSW 17.0 mph27.4 kmh 29.75 in1007.5 mb 0.00 in0.0 mm 0.00 in/hr0.0 mm/hr 0.00 in0.0 mm
02:49 PM 97.5°F36.4°C 34.1°F1.2°C 11% 7.0 mph W11.3 kmh W 20.0 mph32.2 kmh 29.75 in1007.5 mb 0.00 in0.0 mm 0.00 in/hr0.0 mm/hr 0.00 in0.0 mm
02:44 PM 97.5°F36.4°C 34.1°F1.2°C 11% 7.0 mph WSW11.3 kmh WSW 20.0 mph32.2 kmh 29.75 in1007.5 mb 0.00 in0.0 mm 0.00 in/hr0.0 mm/hr 0.00 in0.0 mm
02:39 PM 97.1°F36.2°C 31.5°F-0.3°C 10% 6.0 mph WSW9.7 kmh WSW 20.0 mph32.2 kmh 29.75 in1007.5 mb 0.00 in0.0 mm 0.00 in/hr0.0 mm/hr 0.00 in0.0 mm
02:34 PM 97.1°F36.2°C 31.5°F-0.3°C 10% 8.0 mph WNW12.9 kmh WNW 20.0 mph32.2 kmh 29.75 in1007.5 mb 0.00 in0.0 mm 0.00 in/hr0.0 mm/hr 0.00 in0.0 mm
02:29 PM 96.8°F36.0°C 28.6°F-1.9°C 9% 4.0 mph SW6.4 kmh SW 18.0 mph29.0 kmh 29.76 in1007.8 mb 0.00 in0.0 mm 0.00 in/hr0.0 mm/hr 0.00 in0.0 mm
02:24 PM 96.6°F35.9°C 28.5°F-1.9°C 9% 11.0 mph NW17.7 kmh NW 18.0 mph29.0 kmh 29.76 in1007.8 mb 0.00 in0.0 mm 0.00 in/hr0.0 mm/hr 0.00 in0.0 mm
02:19 PM 96.6°F35.9°C 28.5°F-1.9°C 9% 9.0 mph WNW14.5 kmh WNW 18.0 mph29.0 kmh 29.76 in1007.8 mb 0.00 in0.0 mm 0.00 in/hr0.0 mm/hr 0.00 in0.0 mm
02:14 PM 97.3°F36.3°C 31.6°F-0.2°C 10% 1.0 mph WSW1.6 kmh WSW 18.0 mph29.0 kmh 29.76 in1007.8 mb 0.00 in0.0 mm 0.00 in/hr0.0 mm/hr 0.00 in0.0 mm
02:09 PM 97.1°F36.2°C 19.2°F-7.1°C 6% 9.0 mph NW14.5 kmh NW 18.0 mph29.0 kmh 29.76 in1007.8 mb 0.00 in0.0 mm 0.00 in/hr0.0 mm/hr 0.00 in0.0 mm
02:04 PM 97.1°F36.2°C 26.0°F-3.3°C 8% 10.0 mph NW16.1 kmh NW 22.0 mph35.4 kmh 29.76 in1007.8 mb 0.00 in0.0 mm 0.00 in/hr0.0 mm/hr 0.00 in0.0 mm
01:59 PM 97.3°F36.3°C 26.2°F-3.2°C 8% 5.0 mph NW8.0 kmh NW 22.0 mph35.4 kmh 29.77 in1008.1 mb 0.00 in0.0 mm 0.00 in/hr0.0 mm/hr 0.00 in0.0 mm
01:54 PM 97.1°F36.2°C 19.2°F-7.1°C 6% 4.0 mph NW6.4 kmh NW 22.0 mph35.4 kmh 29.77 in1008.1 mb 0.00 in0.0 mm 0.00 in/hr0.0 mm/hr 0.00 in0.0 mm
01:49 PM 96.8°F36.0°C 25.8°F-3.4°C 8% 12.0 mph W19.3 kmh W 22.0 mph35.4 kmh 29.77 in1008.1 mb 0.00 in0.0 mm 0.00 in/hr0.0 mm/hr 0.00 in0.0 mm
01:44 PM 96.8°F36.0°C 14.8°F-9.6°C 5% 10.0 mph NW16.1 kmh NW 16.0 mph25.7 kmh 29.77 in1008.1 mb 0.00 in0.0 mm 0.00 in/hr0.0 mm/hr 0.00 in0.0 mm
01:39 PM 96.6°F35.9°C 22.5°F-5.3°C 7% 5.0 mph NW8.0 kmh NW 16.0 mph25.7 kmh 29.77 in1008.1 mb 0.00 in0.0 mm 0.00 in/hr0.0 mm/hr 0.00 in0.0 mm
01:34 PM 96.6°F35.9°C 22.5°F-5.3°C 7% 7.0 mph WNW11.3 kmh WNW 16.0 mph25.7 kmh 29.77 in1008.1 mb 0.00 in0.0 mm 0.00 in/hr0.0 mm/hr 0.00 in0.0 mm
01:29 PM 96.6°F35.9°C 9.6°F-12.4°C 4% 4.0 mph NW6.4 kmh NW 16.0 mph25.7 kmh 29.78 in1008.5 mb 0.00 in0.0 mm 0.00 in/hr0.0 mm/hr 0.00 in0.0 mm
01:24 PM 96.6°F35.9°C 9.6°F-12.4°C 4% 7.0 mph SW11.3 kmh SW 16.0 mph25.7 kmh 29.78 in1008.5 mb 0.00 in0.0 mm 0.00 in/hr0.0 mm/hr 0.00 in0.0 mm
01:19 PM 96.3°F35.7°C 14.4°F-9.8°C 5% 5.0 mph WNW8.0 kmh WNW 16.0 mph25.7 kmh 29.78 in1008.5 mb 0.00 in0.0 mm 0.00 in/hr0.0 mm/hr 0.00 in0.0 mm
01:14 PM 96.3°F35.7°C 22.2°F-5.4°C 7% 7.0 mph WSW11.3 kmh WSW 16.0 mph25.7 kmh 29.78 in1008.5 mb 0.00 in0.0 mm 0.00 in/hr0.0 mm/hr 0.00 in0.0 mm
01:09 PM 95.9°F35.5°C 18.3°F-7.6°C 6% 9.0 mph SW14.5 kmh SW 16.0 mph25.7 kmh 29.79 in1008.8 mb 0.00 in0.0 mm 0.00 in/hr0.0 mm/hr 0.00 in0.0 mm
01:04 PM 95.6°F35.3°C 13.9°F-10.1°C 5% 6.0 mph W9.7 kmh W 16.0 mph25.7 kmh 29.79 in1008.8 mb 0.00 in0.0 mm 0.00 in/hr0.0 mm/hr 0.00 in0.0 mm
12:59 PM 95.6°F35.3°C 13.9°F-10.1°C 5% 5.0 mph NW8.0 kmh NW 17.0 mph27.4 kmh 29.79 in1008.8 mb 0.00 in0.0 mm 0.00 in/hr0.0 mm/hr 0.00 in0.0 mm
12:54 PM 95.4°F35.2°C 13.8°F-10.1°C 5% 12.0 mph WSW19.3 kmh WSW 17.0 mph27.4 kmh 29.79 in1008.8 mb 0.00 in0.0 mm 0.00 in/hr0.0 mm/hr 0.00 in0.0 mm
12:49 PM 95.4°F35.2°C 18.0°F-7.8°C 6% 6.0 mph NW9.7 kmh NW 17.0 mph27.4 kmh 29.79 in1008.8 mb 0.00 in0.0 mm 0.00 in/hr0.0 mm/hr 0.00 in0.0 mm
12:44 PM 94.9°F34.9°C 13.5°F-10.3°C 5% 9.0 mph NW14.5 kmh NW 17.0 mph27.4 kmh 29.80 in1009.1 mb 0.00 in0.0 mm 0.00 in/hr0.0 mm/hr 0.00 in0.0 mm
12:39 PM 94.9°F34.9°C 17.6°F-8.0°C 6% 12.0 mph NW19.3 kmh NW 16.0 mph25.7 kmh 29.80 in1009.1 mb 0.00 in0.0 mm 0.00 in/hr0.0 mm/hr 0.00 in0.0 mm
12:34 PM 94.9°F34.9°C 17.6°F-8.0°C 6% 7.0 mph NW11.3 kmh NW 16.0 mph25.7 kmh 29.80 in1009.1 mb 0.00 in0.0 mm 0.00 in/hr0.0 mm/hr 0.00 in0.0 mm
12:29 PM 94.7°F34.8°C 17.5°F-8.1°C 6% 5.0 mph NW8.0 kmh NW 16.0 mph25.7 kmh 29.80 in1009.1 mb 0.00 in0.0 mm 0.00 in/hr0.0 mm/hr 0.00 in0.0 mm
12:24 PM 94.7°F34.8°C 21.1°F-6.1°C 7% 3.0 mph WNW4.8 kmh WNW 16.0 mph25.7 kmh 29.81 in1009.5 mb 0.00 in0.0 mm 0.00 in/hr0.0 mm/hr 0.00 in0.0 mm
12:19 PM 94.5°F34.7°C 20.9°F-6.2°C 7% 10.0 mph NW16.1 kmh NW 16.0 mph25.7 kmh 29.81 in1009.5 mb 0.00 in0.0 mm 0.00 in/hr0.0 mm/hr 0.00 in0.0 mm
12:14 PM 94.0°F34.4°C 20.6°F-6.3°C 7% 7.0 mph NW11.3 kmh NW 16.0 mph25.7 kmh 29.81 in1009.5 mb 0.00 in0.0 mm 0.00 in/hr0.0 mm/hr 0.00 in0.0 mm
12:09 PM 94.0°F34.4°C 26.6°F-3.0°C 9% 8.0 mph NW12.9 kmh NW 16.0 mph25.7 kmh 29.81 in1009.5 mb 0.00 in0.0 mm 0.00 in/hr0.0 mm/hr 0.00 in0.0 mm
12:04 PM 93.2°F34.0°C 26.0°F-3.3°C 9% 12.0 mph NW19.3 kmh NW 16.0 mph25.7 kmh 29.81 in1009.5 mb 0.00 in0.0 mm 0.00 in/hr0.0 mm/hr 0.00 in0.0 mm
11:59 AM 92.9°F33.8°C 25.7°F-3.5°C 9% 10.0 mph NW16.1 kmh NW 16.0 mph25.7 kmh 29.81 in1009.5 mb 0.00 in0.0 mm 0.00 in/hr0.0 mm/hr 0.00 in0.0 mm
11:54 AM 93.2°F34.0°C 28.5°F-1.9°C 10% 3.0 mph NW4.8 kmh NW 14.0 mph22.5 kmh 29.81 in1009.5 mb 0.00 in0.0 mm 0.00 in/hr0.0 mm/hr 0.00 in0.0 mm
11:49 AM 92.7°F33.7°C 30.5°F-0.8°C 11% 7.0 mph NW11.3 kmh NW 14.0 mph22.5 kmh 29.81 in1009.5 mb 0.00 in0.0 mm 0.00 in/hr0.0 mm/hr 0.00 in0.0 mm
11:44 AM 92.7°F33.7°C 30.5°F-0.8°C 11% 10.0 mph NW16.1 kmh NW 14.0 mph22.5 kmh 29.81 in1009.5 mb 0.00 in0.0 mm 0.00 in/hr0.0 mm/hr 0.00 in0.0 mm
11:39 AM 92.3°F33.5°C 32.3°F0.2°C 12% 3.0 mph NNW4.8 kmh NNW 13.0 mph20.9 kmh 29.81 in1009.5 mb 0.00 in0.0 mm 0.00 in/hr0.0 mm/hr 0.00 in0.0 mm
11:34 AM 92.3°F33.5°C 34.3°F1.3°C 13% 4.0 mph WSW6.4 kmh WSW 12.0 mph19.3 kmh 29.81 in1009.5 mb 0.00 in0.0 mm 0.00 in/hr0.0 mm/hr 0.00 in0.0 mm
11:29 AM 92.3°F33.5°C 34.3°F1.3°C 13% 5.0 mph NW8.0 kmh NW 12.0 mph19.3 kmh 29.82 in1009.8 mb 0.00 in0.0 mm 0.00 in/hr0.0 mm/hr 0.00 in0.0 mm
11:24 AM 91.6°F33.1°C 33.8°F1.0°C 13% 4.0 mph NW6.4 kmh NW 12.0 mph19.3 kmh 29.82 in1009.8 mb 0.00 in0.0 mm 0.00 in/hr0.0 mm/hr 0.00 in0.0 mm
11:19 AM 91.4°F33.0°C 33.6°F0.9°C 13% 4.0 mph WNW6.4 kmh WNW 12.0 mph19.3 kmh 29.82 in1009.8 mb 0.00 in0.0 mm 0.00 in/hr0.0 mm/hr 0.00 in0.0 mm
11:14 AM 91.2°F32.9°C 35.3°F1.8°C 14% 5.0 mph WNW8.0 kmh WNW 12.0 mph19.3 kmh 29.81 in1009.5 mb 0.00 in0.0 mm 0.00 in/hr0.0 mm/hr 0.00 in0.0 mm
11:09 AM 90.7°F32.6°C 34.9°F1.6°C 14% 9.0 mph NNW14.5 kmh NNW 15.0 mph24.1 kmh 29.81 in1009.5 mb 0.00 in0.0 mm 0.00 in/hr0.0 mm/hr 0.00 in0.0 mm
11:04 AM 90.5°F32.5°C 36.5°F2.5°C 15% 4.0 mph SSW6.4 kmh SSW 15.0 mph24.1 kmh 29.81 in1009.5 mb 0.00 in0.0 mm 0.00 in/hr0.0 mm/hr 0.00 in0.0 mm
10:59 AM 90.5°F32.5°C 36.5°F2.5°C 15% 9.0 mph WNW14.5 kmh WNW 16.0 mph25.7 kmh 29.81 in1009.5 mb 0.00 in0.0 mm 0.00 in/hr0.0 mm/hr 0.00 in0.0 mm
10:54 AM 90.5°F32.5°C 36.5°F2.5°C 15% 10.0 mph WSW16.1 kmh WSW 16.0 mph25.7 kmh 29.82 in1009.8 mb 0.00 in0.0 mm 0.00 in/hr0.0 mm/hr 0.00 in0.0 mm
10:49 AM 90.5°F32.5°C 36.5°F2.5°C 15% 5.0 mph W8.0 kmh W 16.0 mph25.7 kmh 29.82 in1009.8 mb 0.00 in0.0 mm 0.00 in/hr0.0 mm/hr 0.00 in0.0 mm
10:44 AM 90.1°F32.3°C 36.2°F2.3°C 15% 5.0 mph NW8.0 kmh NW 16.0 mph25.7 kmh 29.82 in1009.8 mb 0.00 in0.0 mm 0.00 in/hr0.0 mm/hr 0.00 in0.0 mm
10:39 AM 89.7°F32.1°C 35.9°F2.2°C 15% 5.0 mph WNW8.0 kmh WNW 13.0 mph20.9 kmh 29.82 in1009.8 mb 0.00 in0.0 mm 0.00 in/hr0.0 mm/hr 0.00 in0.0 mm
10:34 AM 89.3°F31.8°C 38.7°F3.7°C 17% 5.0 mph NW8.0 kmh NW 13.0 mph20.9 kmh 29.82 in1009.8 mb 0.00 in0.0 mm 0.00 in/hr0.0 mm/hr 0.00 in0.0 mm
10:29 AM 89.0°F31.7°C 41.4°F5.2°C 19% 3.0 mph WSW4.8 kmh WSW 13.0 mph20.9 kmh 29.82 in1009.8 mb 0.00 in0.0 mm 0.00 in/hr0.0 mm/hr 0.00 in0.0 mm
10:24 AM 88.8°F31.6°C 39.8°F4.3°C 18% 9.0 mph NW14.5 kmh NW 11.0 mph17.7 kmh 29.82 in1009.8 mb 0.00 in0.0 mm 0.00 in/hr0.0 mm/hr 0.00 in0.0 mm
10:19 AM 88.4°F31.3°C 39.5°F4.2°C 18% 4.0 mph NW6.4 kmh NW 10.0 mph16.1 kmh 29.82 in1009.8 mb 0.00 in0.0 mm 0.00 in/hr0.0 mm/hr 0.00 in0.0 mm
10:14 AM 88.4°F31.3°C 40.9°F4.9°C 19% 3.0 mph SW4.8 kmh SW 10.0 mph16.1 kmh 29.81 in1009.5 mb 0.00 in0.0 mm 0.00 in/hr0.0 mm/hr 0.00 in0.0 mm
10:09 AM 88.4°F31.3°C 39.5°F4.2°C 18% 3.0 mph NW4.8 kmh NW 10.0 mph16.1 kmh 29.81 in1009.5 mb 0.00 in0.0 mm 0.00 in/hr0.0 mm/hr 0.00 in0.0 mm
10:04 AM 88.0°F31.1°C 40.5°F4.7°C 19% 2.0 mph WNW3.2 kmh WNW 10.0 mph16.1 kmh 29.81 in1009.5 mb 0.00 in0.0 mm 0.00 in/hr0.0 mm/hr 0.00 in0.0 mm
09:59 AM 87.8°F31.0°C 40.4°F4.7°C 19% 3.0 mph NW4.8 kmh NW 10.0 mph16.1 kmh 29.81 in1009.5 mb 0.00 in0.0 mm 0.00 in/hr0.0 mm/hr 0.00 in0.0 mm
09:54 AM 87.4°F30.8°C 40.1°F4.5°C 19% 4.0 mph WNW6.4 kmh WNW 10.0 mph16.1 kmh 29.82 in1009.8 mb 0.00 in0.0 mm 0.00 in/hr0.0 mm/hr 0.00 in0.0 mm
09:49 AM 86.7°F30.4°C 40.8°F4.9°C 20% 6.0 mph WSW9.7 kmh WSW 10.0 mph16.1 kmh 29.82 in1009.8 mb 0.00 in0.0 mm 0.00 in/hr0.0 mm/hr 0.00 in0.0 mm
09:44 AM 86.3°F30.2°C 40.5°F4.7°C 20% 6.0 mph NW9.7 kmh NW 10.0 mph16.1 kmh 29.82 in1009.8 mb 0.00 in0.0 mm 0.00 in/hr0.0 mm/hr 0.00 in0.0 mm
09:39 AM 85.9°F29.9°C 41.4°F5.2°C 21% 3.0 mph WNW4.8 kmh WNW 10.0 mph16.1 kmh 29.82 in1009.8 mb 0.00 in0.0 mm 0.00 in/hr0.0 mm/hr 0.00 in0.0 mm
09:34 AM 85.7°F29.8°C 42.4°F5.8°C 22% 4.0 mph NW6.4 kmh NW 10.0 mph16.1 kmh 29.82 in1009.8 mb 0.00 in0.0 mm 0.00 in/hr0.0 mm/hr 0.00 in0.0 mm
09:29 AM 85.5°F29.7°C 42.3°F5.7°C 22% 7.0 mph NW11.3 kmh NW 7.0 mph11.3 kmh 29.83 in1010.2 mb 0.00 in0.0 mm 0.00 in/hr0.0 mm/hr 0.00 in0.0 mm
09:24 AM 85.1°F29.5°C 41.9°F5.5°C 22% 3.0 mph NW4.8 kmh NW 7.0 mph11.3 kmh 29.83 in1010.2 mb 0.00 in0.0 mm 0.00 in/hr0.0 mm/hr 0.00 in0.0 mm
09:19 AM 84.7°F29.3°C 42.8°F6.0°C 23% 2.0 mph NW3.2 kmh NW 7.0 mph11.3 kmh 29.83 in1010.2 mb 0.00 in0.0 mm 0.00 in/hr0.0 mm/hr 0.00 in0.0 mm
09:14 AM 84.0°F28.9°C 43.3°F6.3°C 24% 3.0 mph WNW4.8 kmh WNW 5.0 mph8.0 kmh 29.83 in1010.2 mb 0.00 in0.0 mm 0.00 in/hr0.0 mm/hr 0.00 in0.0 mm
09:09 AM 83.6°F28.7°C 41.9°F5.5°C 23% 2.0 mph WNW3.2 kmh WNW 5.0 mph8.0 kmh 29.82 in1009.8 mb 0.00 in0.0 mm 0.00 in/hr0.0 mm/hr 0.00 in0.0 mm
09:04 AM 83.0°F28.3°C 43.5°F6.4°C 25% 2.0 mph WNW3.2 kmh WNW 5.0 mph8.0 kmh 29.82 in1009.8 mb 0.00 in0.0 mm 0.00 in/hr0.0 mm/hr 0.00 in0.0 mm
08:59 AM 82.4°F28.0°C 42.0°F5.6°C 24% 3.0 mph W4.8 kmh W 5.0 mph8.0 kmh 29.82 in1009.8 mb 0.00 in0.0 mm 0.00 in/hr0.0 mm/hr 0.00 in0.0 mm
08:54 AM 81.6°F27.6°C 43.4°F6.3°C 26% 4.0 mph NW6.4 kmh NW 5.0 mph8.0 kmh 29.82 in1009.8 mb 0.00 in0.0 mm 0.00 in/hr0.0 mm/hr 0.00 in0.0 mm
08:49 AM 81.1°F27.3°C 42.9°F6.1°C 26% 1.0 mph NW1.6 kmh NW 5.0 mph8.0 kmh 29.82 in1009.8 mb 0.00 in0.0 mm 0.00 in/hr0.0 mm/hr 0.00 in0.0 mm
08:44 AM 80.5°F26.9°C 43.4°F6.3°C 27% 2.0 mph NW3.2 kmh NW 5.0 mph8.0 kmh 29.82 in1009.8 mb 0.00 in0.0 mm 0.00 in/hr0.0 mm/hr 0.00 in0.0 mm
08:39 AM 79.9°F26.6°C 43.9°F6.6°C 28% 3.0 mph NW4.8 kmh NW 5.0 mph8.0 kmh 29.83 in1010.2 mb 0.00 in0.0 mm 0.00 in/hr0.0 mm/hr 0.00 in0.0 mm
08:34 AM 79.2°F26.2°C 43.3°F6.3°C 28% 5.0 mph WNW8.0 kmh WNW 5.0 mph8.0 kmh 29.83 in1010.2 mb 0.00 in0.0 mm 0.00 in/hr0.0 mm/hr 0.00 in0.0 mm
08:29 AM 78.5°F25.8°C 41.7°F5.4°C 27% 2.0 mph WNW3.2 kmh WNW 5.0 mph8.0 kmh 29.84 in1010.5 mb 0.00 in0.0 mm 0.00 in/hr0.0 mm/hr 0.00 in0.0 mm
08:24 AM 77.4°F25.2°C 42.6°F5.9°C 29% 5.0 mph WNW8.0 kmh WNW 5.0 mph8.0 kmh 29.84 in1010.5 mb 0.00 in0.0 mm 0.00 in/hr0.0 mm/hr 0.00 in0.0 mm
08:19 AM 76.1°F24.5°C 43.3°F6.3°C 31% Calm Calm -- 29.84 in1010.5 mb 0.00 in0.0 mm 0.00 in/hr0.0 mm/hr 0.00 in0.0 mm
08:14 AM 74.9°F23.8°C 42.2°F5.7°C 31% Calm Calm -- 29.84 in1010.5 mb 0.00 in0.0 mm 0.00 in/hr0.0 mm/hr 0.00 in0.0 mm
08:09 AM 73.2°F22.9°C 41.6°F5.3°C 32% Calm Calm 2.0 mph3.2 kmh 29.84 in1010.5 mb 0.00 in0.0 mm 0.00 in/hr0.0 mm/hr 0.00 in0.0 mm
08:04 AM 72.1°F22.3°C 41.4°F5.2°C 33% 1.0 mph NE1.6 kmh NE 2.0 mph3.2 kmh 29.84 in1010.5 mb 0.00 in0.0 mm 0.00 in/hr0.0 mm/hr 0.00 in0.0 mm
07:59 AM 71.3°F21.8°C 40.7°F4.8°C 33% 2.0 mph NE3.2 kmh NE 2.0 mph3.2 kmh 29.85 in1010.8 mb 0.00 in0.0 mm 0.00 in/hr0.0 mm/hr 0.00 in0.0 mm
07:54 AM 70.8°F21.6°C 41.0°F5.0°C 34% 1.0 mph NE1.6 kmh NE 2.0 mph3.2 kmh 29.85 in1010.8 mb 0.00 in0.0 mm 0.00 in/hr0.0 mm/hr 0.00 in0.0 mm
07:49 AM 70.6°F21.4°C 41.6°F5.3°C 35% 1.0 mph NE1.6 kmh NE 2.0 mph3.2 kmh 29.85 in1010.8 mb 0.00 in0.0 mm 0.00 in/hr0.0 mm/hr 0.00 in0.0 mm
07:44 AM 70.4°F21.3°C 42.2°F5.7°C 36% Calm Calm 1.0 mph1.6 kmh 29.85 in1010.8 mb 0.00 in0.0 mm 0.00 in/hr0.0 mm/hr 0.00 in0.0 mm
07:39 AM 70.3°F21.3°C 42.1°F5.6°C 36% 1.0 mph NE1.6 kmh NE 2.0 mph3.2 kmh 29.85 in1010.8 mb 0.00 in0.0 mm 0.00 in/hr0.0 mm/hr 0.00 in0.0 mm
07:34 AM 69.8°F21.0°C 43.0°F6.1°C 38% 1.0 mph NE1.6 kmh NE 2.0 mph3.2 kmh 29.85 in1010.8 mb 0.00 in0.0 mm 0.00 in/hr0.0 mm/hr 0.00 in0.0 mm
07:29 AM 69.3°F20.7°C 41.9°F5.5°C 37% Calm Calm 1.0 mph1.6 kmh 29.85 in1010.8 mb 0.00 in0.0 mm 0.00 in/hr0.0 mm/hr 0.00 in0.0 mm
07:24 AM 68.6°F20.3°C 42.6°F5.9°C 39% Calm Calm -- 29.85 in1010.8 mb 0.00 in0.0 mm 0.00 in/hr0.0 mm/hr 0.00 in0.0 mm
07:19 AM 68.1°F20.1°C 43.5°F6.4°C 41% Calm Calm -- 29.85 in1010.8 mb 0.00 in0.0 mm 0.00 in/hr0.0 mm/hr 0.00 in0.0 mm
07:14 AM 67.1°F19.5°C 42.0°F5.6°C 40% 1.0 mph NE1.6 kmh NE 2.0 mph3.2 kmh 29.85 in1010.8 mb 0.00 in0.0 mm 0.00 in/hr0.0 mm/hr 0.00 in0.0 mm
07:09 AM 66.3°F19.1°C 42.5°F5.8°C 42% Calm Calm 2.0 mph3.2 kmh 29.85 in1010.8 mb 0.00 in0.0 mm 0.00 in/hr0.0 mm/hr 0.00 in0.0 mm
07:04 AM 65.5°F18.6°C 41.8°F5.4°C 42% Calm Calm 1.0 mph1.6 kmh 29.85 in1010.8 mb 0.00 in0.0 mm 0.00 in/hr0.0 mm/hr 0.00 in0.0 mm
06:59 AM 65.3°F18.5°C 41.0°F5.0°C 41% 1.0 mph NE1.6 kmh NE 2.0 mph3.2 kmh 29.85 in1010.8 mb 0.00 in0.0 mm 0.00 in/hr0.0 mm/hr 0.00 in0.0 mm
06:54 AM 65.0°F18.3°C 38.8°F3.8°C 38% 1.0 mph NE1.6 kmh NE 2.0 mph3.2 kmh 29.85 in1010.8 mb 0.00 in0.0 mm 0.00 in/hr0.0 mm/hr 0.00 in0.0 mm
06:49 AM 64.7°F18.2°C 39.2°F4.0°C 39% Calm Calm 4.0 mph6.4 kmh 29.85 in1010.8 mb 0.00 in0.0 mm 0.00 in/hr0.0 mm/hr 0.00 in0.0 mm
06:44 AM 64.3°F17.9°C 38.8°F3.8°C 39% 2.0 mph NE3.2 kmh NE 4.0 mph6.4 kmh 29.85 in1010.8 mb 0.00 in0.0 mm 0.00 in/hr0.0 mm/hr 0.00 in0.0 mm
06:39 AM 63.4°F17.4°C 39.3°F4.1°C 41% 3.0 mph NE4.8 kmh NE 4.0 mph6.4 kmh 29.85 in1010.8 mb 0.00 in0.0 mm 0.00 in/hr0.0 mm/hr 0.00 in0.0 mm
06:34 AM 62.4°F16.9°C 39.6°F4.2°C 43% 1.0 mph NE1.6 kmh NE 2.0 mph3.2 kmh 29.85 in1010.8 mb 0.00 in0.0 mm 0.00 in/hr0.0 mm/hr 0.00 in0.0 mm
06:29 AM 62.0°F16.7°C 39.8°F4.3°C 44% Calm Calm -- 29.85 in1010.8 mb 0.00 in0.0 mm 0.00 in/hr0.0 mm/hr 0.00 in0.0 mm
06:24 AM 61.6°F16.4°C 39.5°F4.2°C 44% Calm Calm -- 29.84 in1010.5 mb 0.00 in0.0 mm 0.00 in/hr0.0 mm/hr 0.00 in0.0 mm
06:19 AM 61.6°F16.4°C 39.5°F4.2°C 44% Calm Calm -- 29.84 in1010.5 mb 0.00 in0.0 mm 0.00 in/hr0.0 mm/hr 0.00 in0.0 mm
06:14 AM 61.8°F16.6°C 40.8°F4.9°C 46% Calm Calm -- 29.84 in1010.5 mb 0.00 in0.0 mm 0.00 in/hr0.0 mm/hr 0.00 in0.0 mm
06:09 AM 61.8°F16.6°C 41.4°F5.2°C 47% Calm Calm 2.0 mph3.2 kmh 29.83 in1010.2 mb 0.00 in0.0 mm 0.00 in/hr0.0 mm/hr 0.00 in0.0 mm
06:04 AM 61.8°F16.6°C 39.1°F3.9°C 43% Calm Calm 2.0 mph3.2 kmh 29.83 in1010.2 mb 0.00 in0.0 mm 0.00 in/hr0.0 mm/hr 0.00 in0.0 mm
05:59 AM 61.8°F16.6°C 38.5°F3.6°C 42% Calm Calm -- 29.83 in1010.2 mb 0.00 in0.0 mm 0.00 in/hr0.0 mm/hr 0.00 in0.0 mm
05:54 AM 61.6°F16.4°C 38.3°F3.5°C 42% 1.0 mph NE1.6 kmh NE 2.0 mph3.2 kmh 29.83 in1010.2 mb 0.00 in0.0 mm 0.00 in/hr0.0 mm/hr 0.00 in0.0 mm
05:49 AM 61.6°F16.4°C 38.3°F3.5°C 42% 1.0 mph NE1.6 kmh NE 2.0 mph3.2 kmh 29.83 in1010.2 mb 0.00 in0.0 mm 0.00 in/hr0.0 mm/hr 0.00 in0.0 mm
05:44 AM 61.6°F16.4°C 38.3°F3.5°C 42% Calm Calm -- 29.83 in1010.2 mb 0.00 in0.0 mm 0.00 in/hr0.0 mm/hr 0.00 in0.0 mm
05:39 AM 61.6°F16.4°C 38.3°F3.5°C 42% Calm Calm -- 29.83 in1010.2 mb 0.00 in0.0 mm 0.00 in/hr0.0 mm/hr 0.00 in0.0 mm
05:34 AM 61.6°F16.4°C 38.3°F3.5°C 42% Calm Calm -- 29.83 in1010.2 mb 0.00 in0.0 mm 0.00 in/hr0.0 mm/hr 0.00 in0.0 mm
05:29 AM 61.6°F16.4°C 38.3°F3.5°C 42% Calm Calm 1.0 mph1.6 kmh 29.83 in1010.2 mb 0.00 in0.0 mm 0.00 in/hr0.0 mm/hr 0.00 in0.0 mm
05:24 AM 61.5°F16.4°C 38.2°F3.4°C 42% Calm Calm 1.0 mph1.6 kmh 29.83 in1010.2 mb 0.00 in0.0 mm 0.00 in/hr0.0 mm/hr 0.00 in0.0 mm
05:19 AM 61.3°F16.3°C 38.0°F3.3°C 42% Calm Calm 1.0 mph1.6 kmh 29.83 in1010.2 mb 0.00 in0.0 mm 0.00 in/hr0.0 mm/hr 0.00 in0.0 mm
05:14 AM 61.3°F16.3°C 37.4°F3.0°C 41% Calm Calm -- 29.83 in1010.2 mb 0.00 in0.0 mm 0.00 in/hr0.0 mm/hr 0.00 in0.0 mm
05:09 AM 61.5°F16.4°C 37.6°F3.1°C 41% 1.0 mph NE1.6 kmh NE 2.0 mph3.2 kmh 29.82 in1009.8 mb 0.00 in0.0 mm 0.00 in/hr0.0 mm/hr 0.00 in0.0 mm
05:04 AM 61.6°F16.4°C 37.0°F2.8°C 40% 1.0 mph NE1.6 kmh NE 1.0 mph1.6 kmh 29.82 in1009.8 mb 0.00 in0.0 mm 0.00 in/hr0.0 mm/hr 0.00 in0.0 mm
04:59 AM 61.8°F16.6°C 36.6°F2.6°C 39% Calm Calm 1.0 mph1.6 kmh 29.82 in1009.8 mb 0.00 in0.0 mm 0.00 in/hr0.0 mm/hr 0.00 in0.0 mm
04:54 AM 61.8°F16.6°C 36.6°F2.6°C 39% Calm Calm -- 29.82 in1009.8 mb 0.00 in0.0 mm 0.00 in/hr0.0 mm/hr 0.00 in0.0 mm
04:49 AM 61.6°F16.4°C 36.4°F2.4°C 39% Calm Calm 1.0 mph1.6 kmh 29.82 in1009.8 mb 0.00 in0.0 mm 0.00 in/hr0.0 mm/hr 0.00 in0.0 mm
04:44 AM 61.5°F16.4°C 36.3°F2.4°C 39% Calm Calm 1.0 mph1.6 kmh 29.82 in1009.8 mb 0.00 in0.0 mm 0.00 in/hr0.0 mm/hr 0.00 in0.0 mm
04:39 AM 61.3°F16.3°C 36.8°F2.7°C 40% Calm Calm 3.0 mph4.8 kmh 29.83 in1010.2 mb 0.00 in0.0 mm 0.00 in/hr0.0 mm/hr 0.00 in0.0 mm
04:34 AM 61.3°F16.3°C 36.1°F2.3°C 39% 2.0 mph NE3.2 kmh NE 2.0 mph3.2 kmh 29.83 in1010.2 mb 0.00 in0.0 mm 0.00 in/hr0.0 mm/hr 0.00 in0.0 mm
04:29 AM 61.5°F16.4°C 36.3°F2.4°C 39% 1.0 mph NE1.6 kmh NE 2.0 mph3.2 kmh 29.83 in1010.2 mb 0.00 in0.0 mm 0.00 in/hr0.0 mm/hr 0.00 in0.0 mm
04:24 AM 61.5°F16.4°C 36.3°F2.4°C 39% Calm Calm 2.0 mph3.2 kmh 29.83 in1010.2 mb 0.00 in0.0 mm 0.00 in/hr0.0 mm/hr 0.00 in0.0 mm
04:19 AM 61.6°F16.4°C 35.7°F2.1°C 38% Calm Calm -- 29.83 in1010.2 mb 0.00 in0.0 mm 0.00 in/hr0.0 mm/hr 0.00 in0.0 mm
04:14 AM 61.8°F16.6°C 35.9°F2.2°C 38% Calm Calm -- 29.83 in1010.2 mb 0.00 in0.0 mm 0.00 in/hr0.0 mm/hr 0.00 in0.0 mm
04:09 AM 62.1°F16.7°C 36.2°F2.3°C 38% Calm Calm 2.0 mph3.2 kmh 29.82 in1009.8 mb 0.00 in0.0 mm 0.00 in/hr0.0 mm/hr 0.00 in0.0 mm
04:04 AM 62.3°F16.8°C 37.0°F2.8°C 39% Calm Calm 1.0 mph1.6 kmh 29.82 in1009.8 mb 0.00 in0.0 mm 0.00 in/hr0.0 mm/hr 0.00 in0.0 mm
03:59 AM 62.3°F16.8°C 37.0°F2.8°C 39% Calm Calm -- 29.82 in1009.8 mb 0.00 in0.0 mm 0.00 in/hr0.0 mm/hr 0.00 in0.0 mm
03:54 AM 62.3°F16.8°C 37.0°F2.8°C 39% 1.0 mph NE1.6 kmh NE 1.0 mph1.6 kmh 29.82 in1009.8 mb 0.00 in0.0 mm 0.00 in/hr0.0 mm/hr 0.00 in0.0 mm
03:49 AM 62.1°F16.7°C 36.2°F2.3°C 38% Calm Calm -- 29.82 in1009.8 mb 0.00 in0.0 mm 0.00 in/hr0.0 mm/hr 0.00 in0.0 mm
03:44 AM 62.0°F16.7°C 35.4°F1.9°C 37% Calm Calm -- 29.82 in1009.8 mb 0.00 in0.0 mm 0.00 in/hr0.0 mm/hr 0.00 in0.0 mm
03:39 AM 61.8°F16.6°C 35.3°F1.8°C 37% Calm Calm 2.0 mph3.2 kmh 29.83 in1010.2 mb 0.00 in0.0 mm 0.00 in/hr0.0 mm/hr 0.00 in0.0 mm
03:34 AM 61.6°F16.4°C 35.1°F1.7°C 37% Calm Calm 2.0 mph3.2 kmh 29.83 in1010.2 mb 0.00 in0.0 mm 0.00 in/hr0.0 mm/hr 0.00 in0.0 mm
03:29 AM 61.6°F16.4°C 35.1°F1.7°C 37% Calm Calm 1.0 mph1.6 kmh 29.83 in1010.2 mb 0.00 in0.0 mm 0.00 in/hr0.0 mm/hr 0.00 in0.0 mm
03:24 AM 61.5°F16.4°C 34.3°F1.3°C 36% 1.0 mph NE1.6 kmh NE 1.0 mph1.6 kmh 29.83 in1010.2 mb 0.00 in0.0 mm 0.00 in/hr0.0 mm/hr 0.00 in0.0 mm
03:19 AM 61.5°F16.4°C 35.0°F1.7°C 37% Calm Calm 1.0 mph1.6 kmh 29.83 in1010.2 mb 0.00 in0.0 mm 0.00 in/hr0.0 mm/hr 0.00 in0.0 mm
03:14 AM 61.5°F16.4°C 35.0°F1.7°C 37% Calm Calm 1.0 mph1.6 kmh 29.83 in1010.2 mb 0.00 in0.0 mm 0.00 in/hr0.0 mm/hr 0.00 in0.0 mm
03:09 AM 61.5°F16.4°C 35.0°F1.7°C 37% Calm Calm -- 29.84 in1010.5 mb 0.00 in0.0 mm 0.00 in/hr0.0 mm/hr 0.00 in0.0 mm
03:04 AM 61.6°F16.4°C 35.1°F1.7°C 37% Calm Calm 1.0 mph1.6 kmh 29.84 in1010.5 mb 0.00 in0.0 mm 0.00 in/hr0.0 mm/hr 0.00 in0.0 mm
02:59 AM 61.8°F16.6°C 35.3°F1.8°C 37% Calm Calm -- 29.84 in1010.5 mb 0.00 in0.0 mm 0.00 in/hr0.0 mm/hr 0.00 in0.0 mm
02:54 AM 62.1°F16.7°C 35.5°F1.9°C 37% Calm Calm -- 29.83 in1010.2 mb 0.00 in0.0 mm 0.00 in/hr0.0 mm/hr 0.00 in0.0 mm
02:49 AM 62.4°F16.9°C 35.8°F2.1°C 37% Calm Calm -- 29.83 in1010.2 mb 0.00 in0.0 mm 0.00 in/hr0.0 mm/hr 0.00 in0.0 mm
02:44 AM 62.7°F17.1°C 34.7°F1.5°C 35% 1.0 mph NE1.6 kmh NE 1.0 mph1.6 kmh 29.83 in1010.2 mb 0.00 in0.0 mm 0.00 in/hr0.0 mm/hr 0.00 in0.0 mm
02:39 AM 62.9°F17.2°C 34.1°F1.2°C 34% Calm Calm -- 29.83 in1010.2 mb 0.00 in0.0 mm 0.00 in/hr0.0 mm/hr 0.00 in0.0 mm
02:34 AM 63.1°F17.3°C 34.3°F1.3°C 34% Calm Calm 2.0 mph3.2 kmh 29.83 in1010.2 mb 0.00 in0.0 mm 0.00 in/hr0.0 mm/hr 0.00 in0.0 mm
02:29 AM 62.9°F17.2°C 34.1°F1.2°C 34% Calm Calm -- 29.83 in1010.2 mb 0.00 in0.0 mm 0.00 in/hr0.0 mm/hr 0.00 in0.0 mm
02:24 AM 62.9°F17.2°C 34.1°F1.2°C 34% Calm Calm -- 29.83 in1010.2 mb 0.00 in0.0 mm 0.00 in/hr0.0 mm/hr 0.00 in0.0 mm
02:19 AM 62.9°F17.2°C 34.1°F1.2°C 34% Calm Calm 2.0 mph3.2 kmh 29.83 in1010.2 mb 0.00 in0.0 mm 0.00 in/hr0.0 mm/hr 0.00 in0.0 mm
02:14 AM 62.9°F17.2°C 34.1°F1.2°C 34% Calm Calm -- 29.83 in1010.2 mb 0.00 in0.0 mm 0.00 in/hr0.0 mm/hr 0.00 in0.0 mm
02:09 AM 62.9°F17.2°C 33.4°F0.8°C 33% Calm Calm 2.0 mph3.2 kmh 29.84 in1010.5 mb 0.00 in0.0 mm 0.00 in/hr0.0 mm/hr 0.00 in0.0 mm
02:04 AM 62.9°F17.2°C 33.4°F0.8°C 33% 2.0 mph NE3.2 kmh NE 2.0 mph3.2 kmh 29.84 in1010.5 mb 0.00 in0.0 mm 0.00 in/hr0.0 mm/hr 0.00 in0.0 mm
01:59 AM 63.1°F17.3°C 34.3°F1.3°C 34% Calm Calm -- 29.84 in1010.5 mb 0.00 in0.0 mm 0.00 in/hr0.0 mm/hr 0.00 in0.0 mm
01:54 AM 63.2°F17.3°C 35.1°F1.7°C 35% Calm Calm 2.0 mph3.2 kmh 29.84 in1010.5 mb 0.00 in0.0 mm 0.00 in/hr0.0 mm/hr 0.00 in0.0 mm
01:49 AM 63.2°F17.3°C 35.1°F1.7°C 35% Calm Calm -- 29.84 in1010.5 mb 0.00 in0.0 mm 0.00 in/hr0.0 mm/hr 0.00 in0.0 mm
01:44 AM 63.1°F17.3°C 35.0°F1.7°C 35% 2.0 mph NE3.2 kmh NE 4.0 mph6.4 kmh 29.84 in1010.5 mb 0.00 in0.0 mm 0.00 in/hr0.0 mm/hr 0.00 in0.0 mm
01:39 AM 62.9°F17.2°C 34.8°F1.6°C 35% 1.0 mph NE1.6 kmh NE 4.0 mph6.4 kmh 29.84 in1010.5 mb 0.00 in0.0 mm 0.00 in/hr0.0 mm/hr 0.00 in0.0 mm
01:34 AM 62.7°F17.1°C 34.7°F1.5°C 35% 1.0 mph NE1.6 kmh NE 4.0 mph6.4 kmh 29.84 in1010.5 mb 0.00 in0.0 mm 0.00 in/hr0.0 mm/hr 0.00 in0.0 mm
01:29 AM 62.4°F16.9°C 34.4°F1.3°C 35% 3.0 mph N4.8 kmh N 3.0 mph4.8 kmh 29.84 in1010.5 mb 0.00 in0.0 mm 0.00 in/hr0.0 mm/hr 0.00 in0.0 mm
01:24 AM 62.3°F16.8°C 35.7°F2.1°C 37% 2.0 mph N3.2 kmh N 2.0 mph3.2 kmh 29.84 in1010.5 mb 0.00 in0.0 mm 0.00 in/hr0.0 mm/hr 0.00 in0.0 mm
01:19 AM 62.4°F16.9°C 35.8°F2.1°C 37% Calm Calm -- 29.84 in1010.5 mb 0.00 in0.0 mm 0.00 in/hr0.0 mm/hr 0.00 in0.0 mm
01:14 AM 62.4°F16.9°C 36.5°F2.5°C 38% 1.0 mph N1.6 kmh N 1.0 mph1.6 kmh 29.84 in1010.5 mb 0.00 in0.0 mm 0.00 in/hr0.0 mm/hr 0.00 in0.0 mm
01:09 AM 62.4°F16.9°C 36.5°F2.5°C 38% 1.0 mph N1.6 kmh N 1.0 mph1.6 kmh 29.84 in1010.5 mb 0.00 in0.0 mm 0.00 in/hr0.0 mm/hr 0.00 in0.0 mm
01:04 AM 62.6°F17.0°C 38.6°F3.7°C 41% 1.0 mph N1.6 kmh N 2.0 mph3.2 kmh 29.84 in1010.5 mb 0.00 in0.0 mm 0.00 in/hr0.0 mm/hr 0.00 in0.0 mm
12:59 AM 62.6°F17.0°C 38.6°F3.7°C 41% 1.0 mph N1.6 kmh N 2.0 mph3.2 kmh 29.84 in1010.5 mb 0.00 in0.0 mm 0.00 in/hr0.0 mm/hr 0.00 in0.0 mm
12:54 AM 62.7°F17.1°C 39.3°F4.1°C 42% Calm Calm 1.0 mph1.6 kmh 29.84 in1010.5 mb 0.00 in0.0 mm 0.00 in/hr0.0 mm/hr 0.00 in0.0 mm
12:49 AM 63.1°F17.3°C 39.0°F3.9°C 41% Calm Calm 1.0 mph1.6 kmh 29.84 in1010.5 mb 0.00 in0.0 mm 0.00 in/hr0.0 mm/hr 0.00 in0.0 mm
12:44 AM 63.2°F17.3°C 39.1°F3.9°C 41% Calm Calm -- 29.84 in1010.5 mb 0.00 in0.0 mm 0.00 in/hr0.0 mm/hr 0.00 in0.0 mm
12:39 AM 63.2°F17.3°C 39.7°F4.3°C 42% 1.0 mph N1.6 kmh N 2.0 mph3.2 kmh 29.85 in1010.8 mb 0.00 in0.0 mm 0.00 in/hr0.0 mm/hr 0.00 in0.0 mm
12:34 AM 63.4°F17.4°C 39.9°F4.4°C 42% 1.0 mph N1.6 kmh N 2.0 mph3.2 kmh 29.85 in1010.8 mb 0.00 in0.0 mm 0.00 in/hr0.0 mm/hr 0.00 in0.0 mm
12:29 AM 63.5°F17.5°C 39.4°F4.1°C 41% Calm Calm 1.0 mph1.6 kmh 29.85 in1010.8 mb 0.00 in0.0 mm 0.00 in/hr0.0 mm/hr 0.00 in0.0 mm
12:24 AM 63.7°F17.6°C 39.6°F4.2°C 41% Calm Calm 2.0 mph3.2 kmh 29.85 in1010.8 mb 0.00 in0.0 mm 0.00 in/hr0.0 mm/hr 0.00 in0.0 mm
12:19 AM 63.7°F17.6°C 39.6°F4.2°C 41% 1.0 mph N1.6 kmh N 2.0 mph3.2 kmh 29.85 in1010.8 mb 0.00 in0.0 mm 0.00 in/hr0.0 mm/hr 0.00 in0.0 mm
12:14 AM 63.9°F17.7°C 39.1°F3.9°C 40% 1.0 mph N1.6 kmh N 1.0 mph1.6 kmh 29.85 in1010.8 mb 0.00 in0.0 mm 0.00 in/hr0.0 mm/hr 0.00 in0.0 mm
12:09 AM 64.0°F17.8°C 39.2°F4.0°C 40% Calm Calm -- 29.85 in1010.8 mb 0.00 in0.0 mm 0.00 in/hr0.0 mm/hr 0.00 in0.0 mm
12:04 AM 64.2°F17.9°C 38.7°F3.7°C 39% Calm Calm 3.0 mph4.8 kmh 29.85 in1010.8 mb 0.00 in0.0 mm 0.00 in/hr0.0 mm/hr 0.00 in0.0 mm